sensor_id;sensor_type;location;lat;lon;timestamp;temperature;humidity
23713;DHT22;12035;49.978;8.298;2023-11-21T00:03:03;12.80;82.10
23713;DHT22;12035;49.978;8.298;2023-11-21T00:08:03;12.80;82.60
23713;DHT22;12035;49.978;8.298;2023-11-21T00:13:01;12.80;82.90
23713;DHT22;12035;49.978;8.298;2023-11-21T00:18:00;12.80;82.90
23713;DHT22;12035;49.978;8.298;2023-11-21T00:22:58;12.90;83.20
23713;DHT22;12035;49.978;8.298;2023-11-21T00:27:59;12.90;82.90
23713;DHT22;12035;49.978;8.298;2023-11-21T00:32:57;13.00;83.00
23713;DHT22;12035;49.978;8.298;2023-11-21T00:37:54;13.00;82.90
23713;DHT22;12035;49.978;8.298;2023-11-21T00:42:51;13.10;83.00
23713;DHT22;12035;49.978;8.298;2023-11-21T00:47:50;13.00;82.90
23713;DHT22;12035;49.978;8.298;2023-11-21T00:52:46;13.00;83.00
23713;DHT22;12035;49.978;8.298;2023-11-21T00:57:44;13.10;82.90
23713;DHT22;12035;49.978;8.298;2023-11-21T01:02:43;13.10;82.90
23713;DHT22;12035;49.978;8.298;2023-11-21T01:07:41;13.10;82.90
23713;DHT22;12035;49.978;8.298;2023-11-21T01:12:38;13.00;83.10
23713;DHT22;12035;49.978;8.298;2023-11-21T01:17:36;13.00;83.00
23713;DHT22;12035;49.978;8.298;2023-11-21T01:22:33;13.00;83.00
23713;DHT22;12035;49.978;8.298;2023-11-21T01:27:32;13.10;83.10
23713;DHT22;12035;49.978;8.298;2023-11-21T01:32:29;13.10;83.40
23713;DHT22;12035;49.978;8.298;2023-11-21T01:37:26;13.10;83.20
23713;DHT22;12035;49.978;8.298;2023-11-21T01:42:24;13.20;84.10
23713;DHT22;12035;49.978;8.298;2023-11-21T01:47:22;13.10;84.00
23713;DHT22;12035;49.978;8.298;2023-11-21T01:52:20;13.20;83.50
23713;DHT22;12035;49.978;8.298;2023-11-21T01:57:19;13.20;83.50
23713;DHT22;12035;49.978;8.298;2023-11-21T02:02:16;13.30;83.80
23713;DHT22;12035;49.978;8.298;2023-11-21T02:07:15;13.30;83.60
23713;DHT22;12035;49.978;8.298;2023-11-21T02:12:12;13.30;83.80
23713;DHT22;12035;49.978;8.298;2023-11-21T02:17:09;13.30;83.80
23713;DHT22;12035;49.978;8.298;2023-11-21T02:22:06;13.30;83.90
23713;DHT22;12035;49.978;8.298;2023-11-21T02:27:05;13.30;83.90
23713;DHT22;12035;49.978;8.298;2023-11-21T02:32:02;13.30;84.00
23713;DHT22;12035;49.978;8.298;2023-11-21T02:37:01;13.30;83.90
23713;DHT22;12035;49.978;8.298;2023-11-21T02:41:58;13.30;84.00
23713;DHT22;12035;49.978;8.298;2023-11-21T02:46:56;13.30;84.20
23713;DHT22;12035;49.978;8.298;2023-11-21T02:51:53;13.30;84.40
23713;DHT22;12035;49.978;8.298;2023-11-21T02:56:51;13.30;84.30
23713;DHT22;12035;49.978;8.298;2023-11-21T03:01:48;13.30;84.30
23713;DHT22;12035;49.978;8.298;2023-11-21T03:06:46;13.30;84.30
23713;DHT22;12035;49.978;8.298;2023-11-21T03:11:43;13.30;85.20
23713;DHT22;12035;49.978;8.298;2023-11-21T03:16:40;13.30;84.30
23713;DHT22;12035;49.978;8.298;2023-11-21T03:21:37;13.30;84.30
23713;DHT22;12035;49.978;8.298;2023-11-21T03:26:36;13.30;84.20
23713;DHT22;12035;49.978;8.298;2023-11-21T03:31:33;13.30;84.30
23713;DHT22;12035;49.978;8.298;2023-11-21T03:36:31;13.30;84.00
23713;DHT22;12035;49.978;8.298;2023-11-21T03:41:28;13.30;84.00
23713;DHT22;12035;49.978;8.298;2023-11-21T03:46:26;13.20;84.00
23713;DHT22;12035;49.978;8.298;2023-11-21T03:51:24;13.20;85.00
23713;DHT22;12035;49.978;8.298;2023-11-21T03:56:21;13.10;84.20
23713;DHT22;12035;49.978;8.298;2023-11-21T04:01:21;13.10;84.30
23713;DHT22;12035;49.978;8.298;2023-11-21T04:06:20;13.10;84.70
23713;DHT22;12035;49.978;8.298;2023-11-21T04:11:17;13.00;84.70
23713;DHT22;12035;49.978;8.298;2023-11-21T04:16:14;13.00;84.70
23713;DHT22;12035;49.978;8.298;2023-11-21T04:21:11;13.00;84.80
23713;DHT22;12035;49.978;8.298;2023-11-21T04:26:09;13.10;84.80
23713;DHT22;12035;49.978;8.298;2023-11-21T04:31:06;13.00;84.80
23713;DHT22;12035;49.978;8.298;2023-11-21T04:36:04;13.00;84.80
23713;DHT22;12035;49.978;8.298;2023-11-21T04:41:01;13.00;84.80
23713;DHT22;12035;49.978;8.298;2023-11-21T04:46:00;13.00;84.70
23713;DHT22;12035;49.978;8.298;2023-11-21T04:50:58;13.00;84.50
23713;DHT22;12035;49.978;8.298;2023-11-21T04:55:55;13.00;84.40
23713;DHT22;12035;49.978;8.298;2023-11-21T05:00:52;13.00;84.40
23713;DHT22;12035;49.978;8.298;2023-11-21T05:05:50;13.00;84.40
23713;DHT22;12035;49.978;8.298;2023-11-21T05:10:47;13.00;84.30
23713;DHT22;12035;49.978;8.298;2023-11-21T05:15:45;13.00;84.20
23713;DHT22;12035;49.978;8.298;2023-11-21T05:20:42;13.00;84.00
23713;DHT22;12035;49.978;8.298;2023-11-21T05:25:40;12.90;83.90
23713;DHT22;12035;49.978;8.298;2023-11-21T05:30:37;12.90;84.10
23713;DHT22;12035;49.978;8.298;2023-11-21T05:35:35;12.90;84.20
23713;DHT22;12035;49.978;8.298;2023-11-21T05:40:32;12.90;84.20
23713;DHT22;12035;49.978;8.298;2023-11-21T05:45:33;12.90;84.40
23713;DHT22;12035;49.978;8.298;2023-11-21T05:50:30;12.90;84.50
23713;DHT22;12035;49.978;8.298;2023-11-21T05:55:28;12.90;84.60
23713;DHT22;12035;49.978;8.298;2023-11-21T06:00:25;12.90;84.70
23713;DHT22;12035;49.978;8.298;2023-11-21T06:05:24;12.90;84.60
23713;DHT22;12035;49.978;8.298;2023-11-21T06:10:22;12.90;84.60
23713;DHT22;12035;49.978;8.298;2023-11-21T06:15:20;12.90;84.50
23713;DHT22;12035;49.978;8.298;2023-11-21T06:20:19;12.90;84.50
23713;DHT22;12035;49.978;8.298;2023-11-21T06:25:17;13.00;84.40
23713;DHT22;12035;49.978;8.298;2023-11-21T06:30:15;12.90;84.30
23713;DHT22;12035;49.978;8.298;2023-11-21T06:35:15;12.90;84.30
23713;DHT22;12035;49.978;8.298;2023-11-21T06:40:13;12.90;84.30
23713;DHT22;12035;49.978;8.298;2023-11-21T06:45:12;12.90;84.30
23713;DHT22;12035;49.978;8.298;2023-11-21T06:50:10;12.90;84.20
23713;DHT22;12035;49.978;8.298;2023-11-21T06:55:08;12.90;84.10
23713;DHT22;12035;49.978;8.298;2023-11-21T07:00:06;13.00;84.10
23713;DHT22;12035;49.978;8.298;2023-11-21T07:05:06;13.00;84.10
23713;DHT22;12035;49.978;8.298;2023-11-21T07:10:04;12.90;84.00
23713;DHT22;12035;49.978;8.298;2023-11-21T07:15:02;12.90;83.90
23713;DHT22;12035;49.978;8.298;2023-11-21T07:20:06;12.90;83.90
23713;DHT22;12035;49.978;8.298;2023-11-21T07:25:05;12.90;84.00
23713;DHT22;12035;49.978;8.298;2023-11-21T07:30:03;12.90;84.10
23713;DHT22;12035;49.978;8.298;2023-11-21T07:35:03;12.90;84.00
23713;DHT22;12035;49.978;8.298;2023-11-21T07:40:04;12.90;84.00
23713;DHT22;12035;49.978;8.298;2023-11-21T07:45:05;12.90;84.10
23713;DHT22;12035;49.978;8.298;2023-11-21T07:50:06;12.90;84.20
23713;DHT22;12035;49.978;8.298;2023-11-21T07:55:04;13.00;84.30
23713;DHT22;12035;49.978;8.298;2023-11-21T08:00:03;13.00;84.70
23713;DHT22;12035;49.978;8.298;2023-11-21T08:05:06;13.00;85.00
23713;DHT22;12035;49.978;8.298;2023-11-21T08:10:04;13.10;85.20
23713;DHT22;12035;49.978;8.298;2023-11-21T08:15:02;13.10;85.30
23713;DHT22;12035;49.978;8.298;2023-11-21T08:20:00;13.20;85.30
23713;DHT22;12035;49.978;8.298;2023-11-21T08:25:00;13.20;85.10
23713;DHT22;12035;49.978;8.298;2023-11-21T08:29:59;13.30;85.00
23713;DHT22;12035;49.978;8.298;2023-11-21T08:34:56;13.30;85.00
23713;DHT22;12035;49.978;8.298;2023-11-21T08:39:54;13.30;84.90
23713;DHT22;12035;49.978;8.298;2023-11-21T08:44:52;13.30;84.80
23713;DHT22;12035;49.978;8.298;2023-11-21T08:49:49;13.30;84.70
23713;DHT22;12035;49.978;8.298;2023-11-21T08:54:48;13.30;84.60
23713;DHT22;12035;49.978;8.298;2023-11-21T08:59:52;13.30;84.50
23713;DHT22;12035;49.978;8.298;2023-11-21T09:04:51;13.40;84.30
23713;DHT22;12035;49.978;8.298;2023-11-21T09:09:48;13.40;84.80
23713;DHT22;12035;49.978;8.298;2023-11-21T09:14:46;13.40;85.30
23713;DHT22;12035;49.978;8.298;2023-11-21T09:19:44;13.40;85.20
23713;DHT22;12035;49.978;8.298;2023-11-21T09:24:45;13.40;85.20
23713;DHT22;12035;49.978;8.298;2023-11-21T09:29:43;13.40;85.10
23713;DHT22;12035;49.978;8.298;2023-11-21T09:34:41;13.50;84.80
23713;DHT22;12035;49.978;8.298;2023-11-21T09:39:39;13.50;84.60
23713;DHT22;12035;49.978;8.298;2023-11-21T09:44:44;13.50;84.00
23713;DHT22;12035;49.978;8.298;2023-11-21T09:49:46;13.50;83.90
23713;DHT22;12035;49.978;8.298;2023-11-21T09:54:46;13.50;83.90
23713;DHT22;12035;49.978;8.298;2023-11-21T09:59:45;13.50;83.70
23713;DHT22;12035;49.978;8.298;2023-11-21T10:04:44;13.60;83.60
23713;DHT22;12035;49.978;8.298;2023-11-21T10:09:41;13.60;83.30
23713;DHT22;12035;49.978;8.298;2023-11-21T10:14:41;13.70;82.80
23713;DHT22;12035;49.978;8.298;2023-11-21T10:19:39;13.70;82.60
23713;DHT22;12035;49.978;8.298;2023-11-21T10:24:37;13.80;83.00
23713;DHT22;12035;49.978;8.298;2023-11-21T10:29:34;13.90;83.30
23713;DHT22;12035;49.978;8.298;2023-11-21T10:34:33;13.90;83.50
23713;DHT22;12035;49.978;8.298;2023-11-21T10:39:31;14.00;83.40
23713;DHT22;12035;49.978;8.298;2023-11-21T10:44:29;14.20;83.70
23713;DHT22;12035;49.978;8.298;2023-11-21T10:49:27;14.30;83.40
23713;DHT22;12035;49.978;8.298;2023-11-21T10:54:26;14.40;82.60
23713;DHT22;12035;49.978;8.298;2023-11-21T10:59:23;14.50;81.80
23713;DHT22;12035;49.978;8.298;2023-11-21T11:04:22;14.60;81.70
23713;DHT22;12035;49.978;8.298;2023-11-21T11:09:21;14.70;81.60
23713;DHT22;12035;49.978;8.298;2023-11-21T11:14:20;14.80;81.30
23713;DHT22;12035;49.978;8.298;2023-11-21T11:19:20;14.90;80.60
23713;DHT22;12035;49.978;8.298;2023-11-21T11:24:32;14.90;80.90
23713;DHT22;12035;49.978;8.298;2023-11-21T11:29:40;15.00;79.10
23713;DHT22;12035;49.978;8.298;2023-11-21T11:34:45;15.10;79.10
23713;DHT22;12035;49.978;8.298;2023-11-21T11:39:45;15.20;79.00
23713;DHT22;12035;49.978;8.298;2023-11-21T11:44:51;15.30;79.10
23713;DHT22;12035;49.978;8.298;2023-11-21T11:50:11;15.50;78.10
23713;DHT22;12035;49.978;8.298;2023-11-21T11:55:13;15.60;77.10
23713;DHT22;12035;49.978;8.298;2023-11-21T12:00:16;15.60;76.90
23713;DHT22;12035;49.978;8.298;2023-11-21T12:05:16;15.60;76.40
23713;DHT22;12035;49.978;8.298;2023-11-21T12:10:15;15.70;75.60
23713;DHT22;12035;49.978;8.298;2023-11-21T12:15:15;15.60;75.30
23713;DHT22;12035;49.978;8.298;2023-11-21T12:20:13;15.50;74.30
23713;DHT22;12035;49.978;8.298;2023-11-21T12:25:14;15.50;74.40
23713;DHT22;12035;49.978;8.298;2023-11-21T12:30:16;15.50;74.80
23713;DHT22;12035;49.978;8.298;2023-11-21T12:35:14;15.50;74.50
23713;DHT22;12035;49.978;8.298;2023-11-21T12:40:14;15.40;74.00
23713;DHT22;12035;49.978;8.298;2023-11-21T12:45:21;15.30;74.00
23713;DHT22;12035;49.978;8.298;2023-11-21T12:50:22;15.20;73.50
23713;DHT22;12035;49.978;8.298;2023-11-21T12:55:23;15.20;74.00
23713;DHT22;12035;49.978;8.298;2023-11-21T13:00:31;15.20;74.00
23713;DHT22;12035;49.978;8.298;2023-11-21T13:05:34;15.10;73.00
23713;DHT22;12035;49.978;8.298;2023-11-21T13:10:35;15.10;73.20
23713;DHT22;12035;49.978;8.298;2023-11-21T13:15:34;15.00;72.30
23713;DHT22;12035;49.978;8.298;2023-11-21T13:20:32;15.00;72.30
23713;DHT22;12035;49.978;8.298;2023-11-21T13:25:30;14.90;72.60
23713;DHT22;12035;49.978;8.298;2023-11-21T13:30:28;14.90;72.60
23713;DHT22;12035;49.978;8.298;2023-11-21T13:35:30;14.90;72.00
23713;DHT22;12035;49.978;8.298;2023-11-21T13:40:28;14.90;71.60
23713;DHT22;12035;49.978;8.298;2023-11-21T13:45:25;14.80;71.70
23713;DHT22;12035;49.978;8.298;2023-11-21T13:50:24;14.80;71.70
23713;DHT22;12035;49.978;8.298;2023-11-21T13:55:27;14.70;71.70
23713;DHT22;12035;49.978;8.298;2023-11-21T14:00:24;14.70;72.00
23713;DHT22;12035;49.978;8.298;2023-11-21T14:05:39;14.70;72.10
23713;DHT22;12035;49.978;8.298;2023-11-21T14:10:40;14.80;72.50
23713;DHT22;12035;49.978;8.298;2023-11-21T14:15:39;14.80;72.50
23713;DHT22;12035;49.978;8.298;2023-11-21T14:20:41;14.90;72.30
23713;DHT22;12035;49.978;8.298;2023-11-21T14:25:39;14.90;72.50
23713;DHT22;12035;49.978;8.298;2023-11-21T14:30:37;14.90;72.30
23713;DHT22;12035;49.978;8.298;2023-11-21T14:35:35;14.90;72.10
23713;DHT22;12035;49.978;8.298;2023-11-21T14:40:32;14.90;72.00
23713;DHT22;12035;49.978;8.298;2023-11-21T14:45:32;14.90;72.10
23713;DHT22;12035;49.978;8.298;2023-11-21T14:50:30;14.90;72.00
23713;DHT22;12035;49.978;8.298;2023-11-21T14:55:47;14.90;72.00
23713;DHT22;12035;49.978;8.298;2023-11-21T15:00:55;14.80;72.00
23713;DHT22;12035;49.978;8.298;2023-11-21T15:05:56;14.80;71.70
23713;DHT22;12035;49.978;8.298;2023-11-21T15:10:53;14.70;71.80
23713;DHT22;12035;49.978;8.298;2023-11-21T15:15:51;14.70;72.00
23713;DHT22;12035;49.978;8.298;2023-11-21T15:20:50;14.70;72.10
23713;DHT22;12035;49.978;8.298;2023-11-21T15:25:47;14.60;72.00
23713;DHT22;12035;49.978;8.298;2023-11-21T15:30:44;14.60;72.20
23713;DHT22;12035;49.978;8.298;2023-11-21T15:35:43;14.50;72.40
23713;DHT22;12035;49.978;8.298;2023-11-21T15:40:42;14.60;72.50
23713;DHT22;12035;49.978;8.298;2023-11-21T15:45:39;14.50;72.40
23713;DHT22;12035;49.978;8.298;2023-11-21T15:50:36;14.50;72.50
23713;DHT22;12035;49.978;8.298;2023-11-21T15:55:33;14.50;72.50
23713;DHT22;12035;49.978;8.298;2023-11-21T16:00:33;14.50;72.70
23713;DHT22;12035;49.978;8.298;2023-11-21T16:05:30;14.50;72.80
23713;DHT22;12035;49.978;8.298;2023-11-21T16:10:27;14.50;73.00
23713;DHT22;12035;49.978;8.298;2023-11-21T16:15:24;14.50;72.90
23713;DHT22;12035;49.978;8.298;2023-11-21T16:20:23;14.40;72.60
23713;DHT22;12035;49.978;8.298;2023-11-21T16:25:21;14.40;72.70
23713;DHT22;12035;49.978;8.298;2023-11-21T16:30:18;14.30;72.60
23713;DHT22;12035;49.978;8.298;2023-11-21T16:35:19;14.30;72.80
23713;DHT22;12035;49.978;8.298;2023-11-21T16:40:18;14.30;72.90
23713;DHT22;12035;49.978;8.298;2023-11-21T16:45:15;14.20;72.90
23713;DHT22;12035;49.978;8.298;2023-11-21T16:50:12;14.20;73.20
23713;DHT22;12035;49.978;8.298;2023-11-21T16:55:09;14.20;73.30
23713;DHT22;12035;49.978;8.298;2023-11-21T17:00:09;14.10;73.50
23713;DHT22;12035;49.978;8.298;2023-11-21T17:05:08;14.10;73.50
23713;DHT22;12035;49.978;8.298;2023-11-21T17:10:06;14.10;73.70
23713;DHT22;12035;49.978;8.298;2023-11-21T17:15:05;14.10;73.70
23713;DHT22;12035;49.978;8.298;2023-11-21T17:20:06;14.10;73.90
23713;DHT22;12035;49.978;8.298;2023-11-21T17:25:06;14.10;74.00
23713;DHT22;12035;49.978;8.298;2023-11-21T17:30:05;14.20;74.20
23713;DHT22;12035;49.978;8.298;2023-11-21T17:35:05;14.20;74.20
23713;DHT22;12035;49.978;8.298;2023-11-21T17:40:03;14.20;74.20
23713;DHT22;12035;49.978;8.298;2023-11-21T17:45:02;14.20;74.30
23713;DHT22;12035;49.978;8.298;2023-11-21T17:50:01;14.20;74.40
23713;DHT22;12035;49.978;8.298;2023-11-21T17:54:59;14.20;74.40
23713;DHT22;12035;49.978;8.298;2023-11-21T17:59:56;14.10;74.30
23713;DHT22;12035;49.978;8.298;2023-11-21T18:04:53;14.10;74.60
23713;DHT22;12035;49.978;8.298;2023-11-21T18:09:52;14.10;74.70
23713;DHT22;12035;49.978;8.298;2023-11-21T18:14:49;14.00;74.60
23713;DHT22;12035;49.978;8.298;2023-11-21T18:19:47;14.10;74.80
23713;DHT22;12035;49.978;8.298;2023-11-21T18:24:49;14.00;74.80
23713;DHT22;12035;49.978;8.298;2023-11-21T18:29:48;14.00;75.00
23713;DHT22;12035;49.978;8.298;2023-11-21T18:34:45;14.00;75.20
23713;DHT22;12035;49.978;8.298;2023-11-21T18:39:44;14.00;75.20
23713;DHT22;12035;49.978;8.298;2023-11-21T18:44:43;14.00;75.30
23713;DHT22;12035;49.978;8.298;2023-11-21T18:49:41;14.00;75.20
23713;DHT22;12035;49.978;8.298;2023-11-21T18:54:40;14.00;75.30
23713;DHT22;12035;49.978;8.298;2023-11-21T18:59:37;14.00;75.30
23713;DHT22;12035;49.978;8.298;2023-11-21T19:04:38;14.00;75.30
23713;DHT22;12035;49.978;8.298;2023-11-21T19:09:35;14.00;75.40
23713;DHT22;12035;49.978;8.298;2023-11-21T19:14:33;13.90;75.30
23713;DHT22;12035;49.978;8.298;2023-11-21T19:19:30;13.90;75.40
23713;DHT22;12035;49.978;8.298;2023-11-21T19:24:28;13.90;75.40
23713;DHT22;12035;49.978;8.298;2023-11-21T19:29:26;13.90;75.60
23713;DHT22;12035;49.978;8.298;2023-11-21T19:34:23;13.90;76.40
23713;DHT22;12035;49.978;8.298;2023-11-21T19:39:20;13.90;75.70
23713;DHT22;12035;49.978;8.298;2023-11-21T19:44:19;13.70;75.80
23713;DHT22;12035;49.978;8.298;2023-11-21T19:49:16;13.40;76.50
23713;DHT22;12035;49.978;8.298;2023-11-21T19:54:15;13.10;77.50
23713;DHT22;12035;49.978;8.298;2023-11-21T19:59:12;12.80;78.60
23713;DHT22;12035;49.978;8.298;2023-11-21T20:04:12;12.60;79.00
23713;DHT22;12035;49.978;8.298;2023-11-21T20:09:09;12.60;79.40
23713;DHT22;12035;49.978;8.298;2023-11-21T20:14:07;12.50;78.90
23713;DHT22;12035;49.978;8.298;2023-11-21T20:19:04;12.50;77.80
23713;DHT22;12035;49.978;8.298;2023-11-21T20:24:05;12.30;76.80
23713;DHT22;12035;49.978;8.298;2023-11-21T20:29:02;12.10;75.00
23713;DHT22;12035;49.978;8.298;2023-11-21T20:34:00;11.90;74.80
23713;DHT22;12035;49.978;8.298;2023-11-21T20:38:57;11.70;73.30
23713;DHT22;12035;49.978;8.298;2023-11-21T20:43:55;11.40;73.40
23713;DHT22;12035;49.978;8.298;2023-11-21T20:48:52;11.20;73.60
23713;DHT22;12035;49.978;8.298;2023-11-21T20:53:49;11.10;74.20
23713;DHT22;12035;49.978;8.298;2023-11-21T20:58:47;11.10;73.80
23713;DHT22;12035;49.978;8.298;2023-11-21T21:03:45;11.00;74.20
23713;DHT22;12035;49.978;8.298;2023-11-21T21:08:42;10.90;74.50
23713;DHT22;12035;49.978;8.298;2023-11-21T21:13:39;10.90;74.70
23713;DHT22;12035;49.978;8.298;2023-11-21T21:18:37;10.80;74.20
23713;DHT22;12035;49.978;8.298;2023-11-21T21:23:35;10.80;73.70
23713;DHT22;12035;49.978;8.298;2023-11-21T21:28:32;10.80;74.50
23713;DHT22;12035;49.978;8.298;2023-11-21T21:33:29;10.70;74.10
23713;DHT22;12035;49.978;8.298;2023-11-21T21:38:26;10.60;74.10
23713;DHT22;12035;49.978;8.298;2023-11-21T21:43:27;10.60;74.50
23713;DHT22;12035;49.978;8.298;2023-11-21T21:48:24;10.60;73.80
23713;DHT22;12035;49.978;8.298;2023-11-21T21:53:22;10.50;73.80
23713;DHT22;12035;49.978;8.298;2023-11-21T21:58:19;10.50;73.50
23713;DHT22;12035;49.978;8.298;2023-11-21T22:03:17;10.40;72.90
23713;DHT22;12035;49.978;8.298;2023-11-21T22:08:14;10.40;71.60
23713;DHT22;12035;49.978;8.298;2023-11-21T22:13:12;10.20;70.50
23713;DHT22;12035;49.978;8.298;2023-11-21T22:18:09;10.10;71.30
23713;DHT22;12035;49.978;8.298;2023-11-21T22:23:08;10.00;72.10
23713;DHT22;12035;49.978;8.298;2023-11-21T22:28:05;9.90;73.30
23713;DHT22;12035;49.978;8.298;2023-11-21T22:33:03;9.90;73.90
23713;DHT22;12035;49.978;8.298;2023-11-21T22:38:01;9.80;74.30
23713;DHT22;12035;49.978;8.298;2023-11-21T22:43:01;9.70;74.10
23713;DHT22;12035;49.978;8.298;2023-11-21T22:47:58;9.70;74.70
23713;DHT22;12035;49.978;8.298;2023-11-21T22:52:55;9.60;74.40
23713;DHT22;12035;49.978;8.298;2023-11-21T22:57:52;9.60;74.30
23713;DHT22;12035;49.978;8.298;2023-11-21T23:02:50;9.50;73.90
23713;DHT22;12035;49.978;8.298;2023-11-21T23:07:47;9.50;74.10
23713;DHT22;12035;49.978;8.298;2023-11-21T23:12:44;9.60;74.30
23713;DHT22;12035;49.978;8.298;2023-11-21T23:17:41;9.60;74.10
23713;DHT22;12035;49.978;8.298;2023-11-21T23:22:40;9.60;73.90
23713;DHT22;12035;49.978;8.298;2023-11-21T23:27:37;9.60;73.60
23713;DHT22;12035;49.978;8.298;2023-11-21T23:32:34;9.60;73.40
23713;DHT22;12035;49.978;8.298;2023-11-21T23:37:31;9.60;72.60
23713;DHT22;12035;49.978;8.298;2023-11-21T23:42:29;9.60;71.40
23713;DHT22;12035;49.978;8.298;2023-11-21T23:47:26;9.50;71.00
23713;DHT22;12035;49.978;8.298;2023-11-21T23:52:23;9.50;71.50
23713;DHT22;12035;49.978;8.298;2023-11-21T23:57:20;9.40;70.70
